Time;durP1;ratioP1;P1;durP2;ratioP2;P2;SDS_P1;SDS_P2;PMS_P1;PMS_P2;Temp;Humidity;BMP_temperature;BMP_pressure;BME280_temperature;BME280_humidity;BME280_pressure;Samples;Min_cycle;Max_cycle;Signal;HPM_P1;HPM_P2
2023/06/13 00:00:31;;;;;;;;;2.75;2.00;;;;;9.00;94.90;98536.63;4857948;28;103625;-74
2023/06/13 00:03:00;;;;;;;;;3.50;3.50;;;;;8.85;96.36;98529.41;4856393;28;103466;-74
2023/06/13 00:05:36;;;;;;;;;2.25;2.25;;;;;8.89;95.31;98525.31;4853872;28;101633;-74
2023/06/13 00:08:21;;;;;;;;;2.50;1.75;;;;;8.92;96.03;98530.31;4853111;28;102184;-74
2023/06/13 00:11:08;;;;;;;;;3.00;2.00;;;;;8.74;94.96;98496.72;4856715;28;107024;-74
2023/06/13 00:14:02;;;;;;;;;3.25;2.00;;;;;8.91;94.70;98528.66;4857820;28;101925;-74
2023/06/13 00:16:38;;;;;;;;;1.00;1.00;;;;;8.71;95.22;98500.66;4853612;28;101581;-74
2023/06/13 00:19:05;;;;;;;;;1.50;1.00;;;;;8.84;96.29;98521.50;4849885;28;102125;-74
2023/06/13 00:21:33;;;;;;;;;4.00;3.00;;;;;8.55;97.68;98498.19;4860123;28;108249;-74
2023/06/13 00:24:00;;;;;;;;;2.00;2.00;;;;;8.62;98.23;98515.25;4856215;28;101839;-74
2023/06/13 00:26:27;;;;;;;;;4.00;3.00;;;;;8.58;99.45;98522.06;4857336;28;101590;-74
2023/06/13 00:28:57;;;;;;;;;3.50;2.50;;;;;8.48;98.40;98502.66;4852759;28;101620;-74
2023/06/13 00:31:28;;;;;;;;;3.00;2.00;;;;;8.44;99.37;98504.06;4852491;28;103673;-74
2023/06/13 00:33:56;;;;;;;;;2.00;1.75;;;;;8.41;100.00;98508.00;4854656;28;108276;-74
2023/06/13 00:36:25;;;;;;;;;3.75;3.00;;;;;8.29;100.00;98512.19;4854561;28;102025;-74
2023/06/13 00:38:52;;;;;;;;;4.00;3.50;;;;;8.31;100.00;98502.06;4861079;28;101685;-74
2023/06/13 00:41:19;;;;;;;;;3.00;3.00;;;;;8.29;100.00;98501.41;4851582;28;103367;-74
2023/06/13 00:43:47;;;;;;;;;1.75;1.75;;;;;8.31;100.00;98498.53;4866200;28;101667;-74
2023/06/13 00:46:17;;;;;;;;;2.00;1.75;;;;;8.29;100.00;98497.84;4853012;28;102178;-74
2023/06/13 00:48:45;;;;;;;;;1.50;1.25;;;;;8.27;100.00;98476.50;4854216;28;101707;-74
2023/06/13 00:51:12;;;;;;;;;1.00;1.00;;;;;8.42;99.54;98492.66;4847254;28;103778;-74
2023/06/13 00:53:44;;;;;;;;;0.00;0.00;;;;;8.41;98.80;98482.91;4857069;28;101856;-74
2023/06/13 00:56:11;;;;;;;;;1.25;1.25;;;;;8.37;98.12;98476.25;4852820;28;101631;-74
2023/06/13 00:58:38;;;;;;;;;0.00;0.00;;;;;8.40;97.98;98481.22;4857389;28;101787;-74
2023/06/13 01:01:10;;;;;;;;;1.00;0.00;;;;;8.25;98.09;98457.00;4859778;28;108228;-74
2023/06/13 01:03:39;;;;;;;;;1.00;1.00;;;;;8.26;98.80;98464.06;4857405;28;101656;-74
2023/06/13 01:06:14;;;;;;;;;2.00;1.00;;;;;8.32;98.28;98468.72;4852869;28;101984;-74
2023/06/13 01:09:07;;;;;;;;;3.00;2.25;;;;;8.27;98.97;98484.59;4884009;28;101585;-74
2023/06/13 01:12:45;;;;;;;;;3.00;3.00;;;;;8.19;99.47;98486.56;4855299;28;106936;-74
2023/06/13 01:15:48;;;;;;;;;2.00;2.00;;;;;8.16;98.62;98481.53;4845475;28;102580;-74
2023/06/13 01:18:33;;;;;;;;;2.00;2.00;;;;;8.12;98.77;98481.06;4854949;28;101725;-74
2023/06/13 01:21:02;;;;;;;;;3.00;2.50;;;;;8.00;99.48;98463.75;4852793;28;103493;-74
2023/06/13 01:23:37;;;;;;;;;2.25;2.25;;;;;8.14;99.31;98486.28;4875457;28;103545;-74
2023/06/13 01:26:13;;;;;;;;;2.25;1.50;;;;;8.17;98.53;98480.50;4854827;28;101964;-74
2023/06/13 01:28:45;;;;;;;;;2.00;2.00;;;;;7.99;98.85;98452.13;4855539;28;101409;-74
2023/06/13 01:31:16;;;;;;;;;2.00;1.50;;;;;8.17;98.71;98484.03;4861698;28;101949;-75
2023/06/13 01:33:45;;;;;;;;;1.00;0.75;;;;;8.16;98.23;98476.97;4885625;28;103372;-74
2023/06/13 01:36:12;;;;;;;;;4.50;1.50;;;;;8.09;97.97;98476.06;4852159;28;101536;-74
2023/06/13 01:38:40;;;;;;;;;0.00;0.00;;;;;8.12;98.17;98481.06;4888403;28;101966;-74
2023/06/13 01:41:07;;;;;;;;;1.50;1.00;;;;;7.91;97.99;98449.56;4854652;28;101966;-74
2023/06/13 01:43:34;;;;;;;;;3.00;1.50;;;;;8.08;98.55;98477.09;4855381;28;109456;-74
2023/06/13 01:46:43;;;;;;;;;3.00;1.00;;;;;8.03;99.08;98479.50;4878599;28;101963;-74
2023/06/13 01:49:48;;;;;;;;;2.50;2.50;;;;;7.83;98.53;98457.72;4852699;28;101563;-74
2023/06/13 01:52:39;;;;;;;;;1.75;1.25;;;;;7.95;99.88;98475.06;4847374;28;101964;-74
2023/06/13 01:55:16;;;;;;;;;1.00;1.00;;;;;7.88;99.44;98479.53;4857174;28;103534;-74
2023/06/13 01:57:57;;;;;;;;;1.50;1.50;;;;;7.89;100.00;98477.66;4878458;28;101588;-74
2023/06/13 02:00:24;;;;;;;;;1.00;1.00;;;;;7.89;100.00;98466.91;4849660;28;101780;-74
2023/06/13 02:02:53;;;;;;;;;1.50;1.50;;;;;7.91;99.91;98467.56;4858402;28;101548;-74
2023/06/13 02:05:20;;;;;;;;;1.50;1.50;;;;;7.90;99.03;98469.41;4857400;28;103600;-74
2023/06/13 02:07:47;;;;;;;;;0.75;0.00;;;;;7.83;99.44;98452.34;4855569;28;101691;-74
2023/06/13 02:10:14;;;;;;;;;1.00;1.00;;;;;7.85;99.28;98461.06;4858215;28;101553;-74
2023/06/13 02:12:42;;;;;;;;;2.00;1.75;;;;;7.69;100.00;98445.13;4862084;28;101664;-74
2023/06/13 02:15:09;;;;;;;;;4.25;4.00;;;;;7.63;100.00;98456.63;4851656;28;109572;-74
2023/06/13 02:17:36;;;;;;;;;1.75;1.00;;;;;7.65;100.00;98459.13;4849216;28;101601;-74
2023/06/13 02:20:04;;;;;;;;;0.50;0.50;;;;;7.60;100.00;98452.47;4845830;28;102350;-74
2023/06/13 02:22:31;;;;;;;;;1.00;1.00;;;;;7.62;100.00;98454.94;4860752;28;101799;-74
2023/06/13 02:24:59;;;;;;;;;1.25;1.00;;;;;7.62;100.00;98449.56;4851973;28;103335;-74
2023/06/13 02:27:26;;;;;;;;;1.75;1.00;;;;;7.51;100.00;98455.41;4858018;28;102233;-74
2023/06/13 02:29:54;;;;;;;;;3.00;2.00;;;;;7.48;100.00;98453.06;4852685;28;101336;-74
2023/06/13 02:32:22;;;;;;;;;3.00;2.50;;;;;7.41;100.00;98447.63;4858344;28;103397;-74
2023/06/13 02:34:49;;;;;;;;;2.50;1.75;;;;;7.42;100.00;98454.69;4855828;28;103354;-74
2023/06/13 02:37:17;;;;;;;;;3.25;3.00;;;;;7.30;100.00;98460.66;4861890;28;101722;-74
2023/06/13 02:39:44;;;;;;;;;3.00;3.00;;;;;7.27;100.00;98444.91;4854441;28;101701;-73
2023/06/13 02:42:11;;;;;;;;;1.75;1.75;;;;;7.32;100.00;98447.88;4854357;28;101933;-75
2023/06/13 02:44:38;;;;;;;;;4.25;2.50;;;;;7.33;100.00;98452.25;4879392;28;103562;-74
2023/06/13 02:47:05;;;;;;;;;1.50;1.50;;;;;7.25;100.00;98433.53;4854303;28;101865;-74
2023/06/13 02:49:32;;;;;;;;;6.00;4.00;;;;;7.27;100.00;98451.13;4853389;28;101539;-74
2023/06/13 02:51:59;;;;;;;;;6.00;5.00;;;;;7.21;100.00;98442.94;4853608;28;101557;-73
2023/06/13 02:54:26;;;;;;;;;5.00;4.00;;;;;7.23;100.00;98454.38;4855982;28;103275;-74
2023/06/13 02:56:53;;;;;;;;;5.00;5.00;;;;;7.15;100.00;98455.28;4852169;28;106173;-74
2023/06/13 02:59:20;;;;;;;;;4.75;4.75;;;;;7.10;100.00;98445.09;4850433;28;101841;-74
2023/06/13 03:01:47;;;;;;;;;3.00;2.50;;;;;7.05;100.00;98435.88;4860091;28;101868;-74
2023/06/13 03:04:18;;;;;;;;;7.00;4.75;;;;;7.12;100.00;98442.19;4853610;28;107933;-74
2023/06/13 03:06:46;;;;;;;;;4.75;4.00;;;;;7.14;100.00;98443.69;4881700;28;101880;-74
2023/06/13 03:09:13;;;;;;;;;9.25;5.00;;;;;7.25;100.00;98446.97;4869721;28;101879;-74
2023/06/13 03:11:40;;;;;;;;;6.50;5.25;;;;;7.33;100.00;98444.19;4857010;28;103352;-74
2023/06/13 03:14:07;;;;;;;;;8.25;7.50;;;;;7.27;100.00;98426.09;4855267;28;103512;-74
2023/06/13 03:16:35;;;;;;;;;3.00;3.00;;;;;7.40;100.00;98434.34;4856447;28;102058;-73
2023/06/13 03:19:02;;;;;;;;;4.00;3.00;;;;;7.52;100.00;98449.03;4855556;28;101641;-74
2023/06/13 03:21:32;;;;;;;;;5.75;4.50;;;;;7.54;100.00;98438.91;4851380;28;102086;-73
2023/06/13 03:24:00;;;;;;;;;1.00;1.00;;;;;7.66;100.00;98440.09;4850715;28;103390;-74
2023/06/13 03:26:28;;;;;;;;;2.50;2.50;;;;;7.76;100.00;98445.19;4853882;28;101782;-74
2023/06/13 03:28:56;;;;;;;;;1.50;1.50;;;;;7.76;100.00;98427.19;4849534;28;103630;-74
2023/06/13 03:31:24;;;;;;;;;1.00;1.00;;;;;7.88;100.00;98449.09;4874905;28;101850;-74
2023/06/13 03:33:51;;;;;;;;;2.00;2.00;;;;;7.90;100.00;98433.56;4852800;28;103449;-74
2023/06/13 03:36:18;;;;;;;;;2.50;2.00;;;;;7.94;100.00;98433.00;4854879;28;101708;-74
2023/06/13 03:38:45;;;;;;;;;2.00;1.00;;;;;8.01;100.00;98439.31;4842684;28;101527;-74
2023/06/13 03:41:12;;;;;;;;;2.00;1.00;;;;;8.01;100.00;98433.09;4846552;28;101889;-74
2023/06/13 03:43:40;;;;;;;;;2.00;1.00;;;;;8.07;100.00;98438.56;4854697;28;103330;-74
2023/06/13 03:46:07;;;;;;;;;2.25;1.50;;;;;8.13;100.00;98441.53;4853878;28;101651;-74
2023/06/13 03:48:34;;;;;;;;;1.50;1.00;;;;;8.16;100.00;98435.75;4855150;28;103516;-74
2023/06/13 03:51:01;;;;;;;;;1.00;1.00;;;;;8.16;100.00;98438.44;4854124;28;101894;-74
2023/06/13 03:53:28;;;;;;;;;0.75;0.75;;;;;8.22;100.00;98440.38;4855195;28;103357;-74
2023/06/13 03:55:55;;;;;;;;;1.25;1.25;;;;;8.27;100.00;98440.66;4856044;28;101698;-74
2023/06/13 03:58:24;;;;;;;;;1.00;1.00;;;;;8.32;100.00;98432.88;4856170;28;101438;-74
2023/06/13 04:00:54;;;;;;;;;1.00;1.00;;;;;8.34;100.00;98428.94;4855450;28;101618;-74
2023/06/13 04:03:21;;;;;;;;;2.75;2.75;;;;;8.40;100.00;98435.44;4848495;28;103448;-74
2023/06/13 04:05:48;;;;;;;;;1.00;1.00;;;;;8.44;100.00;98428.63;4886254;28;102528;-74
2023/06/13 04:08:17;;;;;;;;;1.75;1.75;;;;;8.40;100.00;98432.75;4852038;28;101972;-74
2023/06/13 04:10:44;;;;;;;;;6.00;4.00;;;;;8.33;100.00;98439.94;4856320;28;101599;-74
2023/06/13 04:13:11;;;;;;;;;5.00;4.00;;;;;8.38;100.00;98445.56;4852999;28;103435;-74
2023/06/13 04:15:38;;;;;;;;;9.75;7.00;;;;;8.44;100.00;98451.03;4855035;28;101426;-74
2023/06/13 04:18:05;;;;;;;;;7.50;6.00;;;;;8.42;100.00;98428.00;4855045;28;101888;-74
2023/06/13 04:20:34;;;;;;;;;6.25;4.00;;;;;8.57;100.00;98438.72;4856482;28;101624;-74
2023/06/13 04:23:01;;;;;;;;;5.50;4.00;;;;;8.75;100.00;98448.00;4855189;28;103593;-74
2023/06/13 04:25:28;;;;;;;;;3.75;3.00;;;;;8.86;100.00;98444.81;4851930;28;101707;-74
2023/06/13 04:27:57;;;;;;;;;9.00;6.50;;;;;8.85;100.00;98442.31;4843738;28;102080;-74
2023/06/13 04:30:25;;;;;;;;;6.00;5.00;;;;;8.79;100.00;98433.13;4856629;28;101602;-74
2023/06/13 04:32:51;;;;;;;;;5.00;5.00;;;;;8.87;100.00;98446.47;4854916;28;103441;-74
2023/06/13 04:35:21;;;;;;;;;6.00;5.00;;;;;8.74;100.00;98440.09;4855513;28;101549;-75
2023/06/13 04:37:49;;;;;;;;;6.50;5.50;;;;;8.80;100.00;98434.78;4853928;28;102022;-74
2023/06/13 04:40:16;;;;;;;;;6.00;5.75;;;;;8.94;100.00;98425.78;4855470;28;101558;-74
2023/06/13 04:42:51;;;;;;;;;8.00;5.75;;;;;9.01;100.00;98425.00;4854424;28;103403;-74
2023/06/13 04:45:20;;;;;;;;;7.00;7.00;;;;;9.52;100.00;98437.19;4853292;28;101588;-74
2023/06/13 04:47:48;;;;;;;;;11.00;8.75;;;;;9.81;97.28;98436.13;4854780;28;101594;-74
2023/06/13 04:50:25;;;;;;;;;5.50;5.00;;;;;10.53;96.68;98427.47;4852401;28;102059;-74
2023/06/13 04:52:53;;;;;;;;;5.75;5.00;;;;;11.06;94.42;98440.00;4853128;28;103572;-74
2023/06/13 04:55:21;;;;;;;;;8.00;8.00;;;;;11.00;91.08;98437.28;4852949;28;102095;-74
2023/06/13 04:57:48;;;;;;;;;5.50;4.25;;;;;11.47;91.54;98420.00;4854169;28;101530;-74
2023/06/13 05:00:15;;;;;;;;;6.50;6.00;;;;;12.22;89.12;98432.91;4852287;28;102499;-74
2023/06/13 05:02:45;;;;;;;;;9.25;7.00;;;;;12.94;84.05;98442.50;4848424;28;103687;-74
2023/06/13 05:05:14;;;;;;;;;7.00;7.00;;;;;12.18;83.49;98425.41;4848565;28;101589;-74
2023/06/13 05:07:42;;;;;;;;;7.75;7.00;;;;;12.96;87.09;98434.97;4854395;28;101449;-75
2023/06/13 05:10:09;;;;;;;;;6.25;6.00;;;;;12.67;81.89;98397.59;4854985;28;101954;-74
2023/06/13 05:12:43;;;;;;;;;9.00;8.25;;;;;13.32;82.61;98426.97;4868267;28;103376;-74
2023/06/13 05:15:10;;;;;;;;;5.50;5.50;;;;;13.69;77.68;98391.69;4853549;28;101539;-74
2023/06/13 05:17:37;;;;;;;;;8.00;7.00;;;;;14.40;76.72;98423.69;4880776;28;101882;-74
2023/06/13 05:20:06;;;;;;;;;4.00;3.00;;;;;14.43;73.42;98368.81;4850441;28;102637;-73
2023/06/13 05:22:33;;;;;;;;;3.25;3.25;;;;;15.05;70.85;98417.28;4841704;28;103604;-74
2023/06/13 05:25:00;;;;;;;;;3.00;3.00;;;;;15.16;70.38;98411.03;4851877;28;101509;-74
2023/06/13 05:27:27;;;;;;;;;1.25;1.25;;;;;15.12;68.38;98426.19;4853123;28;101811;-74
2023/06/13 05:29:55;;;;;;;;;5.00;5.00;;;;;15.08;75.44;98422.25;4857520;28;101578;-74
2023/06/13 05:32:22;;;;;;;;;4.00;4.00;;;;;15.45;70.83;98422.03;4856844;28;103663;-74
2023/06/13 05:34:50;;;;;;;;;6.25;5.75;;;;;15.32;70.70;98422.28;4860116;28;101414;-74
2023/06/13 05:37:17;;;;;;;;;4.00;4.00;;;;;15.59;70.00;98423.50;4853323;28;101477;-74
2023/06/13 05:39:44;;;;;;;;;7.25;6.00;;;;;15.86;67.05;98426.56;4854721;28;101602;-74
2023/06/13 05:42:11;;;;;;;;;7.00;6.00;;;;;15.49;68.85;98379.66;4853486;28;103507;-74
2023/06/13 05:44:39;;;;;;;;;6.50;6.00;;;;;15.07;69.86;98415.16;4853659;28;101916;-74
2023/06/13 05:47:06;;;;;;;;;3.50;3.50;;;;;15.48;68.83;98410.69;4833545;28;102061;-74
2023/06/13 05:49:34;;;;;;;;;2.25;2.25;;;;;15.92;68.07;98418.25;4855238;28;101637;-74
2023/06/13 05:52:01;;;;;;;;;4.25;3.50;;;;;16.18;69.19;98413.34;4852394;28;102843;-74
2023/06/13 05:54:28;;;;;;;;;5.75;5.00;;;;;16.24;65.69;98405.03;4855914;28;101874;-74
2023/06/13 05:56:55;;;;;;;;;6.00;6.00;;;;;15.51;69.79;98402.06;4846557;28;101964;-74
2023/06/13 05:59:25;;;;;;;;;5.75;5.75;;;;;14.93;70.32;98397.38;4852116;28;102550;-74
2023/06/13 06:01:52;;;;;;;;;5.00;5.00;;;;;14.77;73.80;98419.00;4851773;28;103402;-74
2023/06/13 06:04:19;;;;;;;;;5.00;4.00;;;;;15.14;73.78;98415.03;4856132;28;101534;-75
2023/06/13 06:06:46;;;;;;;;;3.00;2.50;;;;;15.47;70.68;98412.59;4876775;28;101622;-75
2023/06/13 06:09:13;;;;;;;;;4.50;4.00;;;;;15.81;69.87;98408.19;4853062;28;101623;-74
2023/06/13 06:11:42;;;;;;;;;4.25;4.00;;;;;15.93;69.10;98413.66;4852279;28;103349;-74
2023/06/13 06:14:11;;;;;;;;;4.50;3.75;;;;;15.81;68.45;98389.09;4855370;28;101574;-74
2023/06/13 06:16:38;;;;;;;;;4.00;3.75;;;;;15.85;67.58;98412.09;4864865;28;101569;-74
2023/06/13 06:19:05;;;;;;;;;6.50;5.00;;;;;15.76;70.79;98380.00;4857815;28;101900;-74
2023/06/13 06:21:32;;;;;;;;;5.00;5.00;;;;;16.61;65.47;98408.25;4851634;28;103522;-74
2023/06/13 06:24:00;;;;;;;;;6.00;6.00;;;;;16.30;64.82;98414.16;4855369;28;101766;-74
2023/06/13 06:26:27;;;;;;;;;4.75;4.50;;;;;16.22;63.06;98414.50;4853709;28;103315;-75
2023/06/13 06:28:57;;;;;;;;;4.75;4.75;;;;;15.64;68.62;98420.91;4885303;28;101938;-73
2023/06/13 06:31:24;;;;;;;;;4.67;3.00;;;;;15.63;66.13;98394.69;4884464;28;103989;-74
2023/06/13 06:33:51;;;;;;;;;3.00;3.00;;;;;15.83;67.40;98414.25;4749513;28;101517;-74
2023/06/13 06:36:19;;;;;;;;;4.33;3.00;;;;;15.64;66.20;98385.47;4843568;28;102062;-74
2023/06/13 06:38:46;;;;;;;;;1.00;1.00;;;;;15.63;64.30;98422.78;4712050;28;101690;-74
2023/06/13 06:41:13;;;;;;;;;1.00;1.00;;;;;15.46;67.03;98412.81;4808722;28;103374;-74
2023/06/13 06:43:40;;;;;;;;;2.00;2.00;;;;;15.98;65.74;98409.13;4798557;28;101926;-74
2023/06/13 06:46:08;;;;;;;;;3.67;3.00;;;;;16.10;66.13;98398.19;4809053;28;101789;-75
2023/06/13 06:48:36;;;;;;;;;5.00;5.00;;;;;16.06;64.98;98407.94;4722169;28;102036;-74
2023/06/13 06:51:03;;;;;;;;;4.00;3.00;;;;;16.27;65.10;98398.25;4857456;28;103436;-73
2023/06/13 06:53:30;;;;;;;;;3.00;3.00;;;;;16.21;65.41;98404.69;4821386;28;102250;-74
2023/06/13 06:55:57;;;;;;;;;2.00;2.00;;;;;16.52;65.64;98401.50;4852819;28;101544;-73
2023/06/13 06:58:25;;;;;;;;;4.00;3.00;;;;;16.17;66.15;98400.75;4719031;28;101522;-74
2023/06/13 07:00:52;;;;;;;;;3.00;2.67;;;;;16.42;64.54;98396.66;4728624;28;103626;-73
2023/06/13 07:03:19;;;;;;;;;3.00;3.00;;;;;16.78;64.07;98400.91;4854624;28;101624;-74
2023/06/13 07:05:46;;;;;;;;;3.00;3.00;;;;;17.01;61.72;98410.03;4866497;28;101424;-74
2023/06/13 07:08:13;;;;;;;;;3.00;3.00;;;;;16.67;60.74;98401.78;4846127;28;102560;-74
2023/06/13 07:10:41;;;;;;;;;2.33;2.00;;;;;16.61;59.38;98400.06;4852023;28;103365;-74
2023/06/13 07:13:08;;;;;;;;;5.00;3.67;;;;;15.45;63.39;98392.91;4854211;28;101981;-74
2023/06/13 07:15:35;;;;;;;;;3.67;2.00;;;;;15.48;63.75;98399.78;4864555;28;101553;-74
2023/06/13 07:18:03;;;;;;;;;4.67;3.00;;;;;15.75;61.17;98401.00;4867876;28;101784;-74
2023/06/13 07:20:30;;;;;;;;;3.00;3.00;;;;;15.81;65.85;98397.28;4838482;28;103494;-74
2023/06/13 07:22:57;;;;;;;;;3.00;2.33;;;;;15.44;62.91;98371.38;4819121;28;106912;-74
2023/06/13 07:25:24;;;;;;;;;4.00;2.33;;;;;16.35;61.04;98385.03;4740061;28;101360;-74
2023/06/13 07:27:51;;;;;;;;;2.75;2.75;;;;;16.29;63.04;98394.22;4859994;28;103341;-74
2023/06/13 07:30:18;;;;;;;;;3.00;2.67;;;;;15.98;63.25;98395.50;4744564;28;103349;-74
2023/06/13 07:32:45;;;;;;;;;3.33;2.33;;;;;16.87;64.30;98395.88;4836201;28;103157;-74
2023/06/13 07:35:14;;;;;;;;;3.00;2.00;;;;;17.17;58.98;98399.13;4678745;28;5001537;-74
2023/06/13 07:37:42;;;;;;;;;2.00;2.00;;;;;17.33;60.00;98384.63;4878555;28;101539;-74
2023/06/13 07:40:09;;;;;;;;;1.67;1.67;;;;;17.94;63.32;98390.16;4863601;28;102895;-74
2023/06/13 07:42:37;;;;;;;;;3.00;2.33;;;;;16.99;61.26;98339.25;4722856;28;101622;-74
2023/06/13 07:45:04;;;;;;;;;3.00;3.00;;;;;16.78;55.81;98349.03;4868830;28;101285;-74
2023/06/13 07:47:31;;;;;;;;;3.00;2.00;;;;;16.24;59.27;98308.72;4871068;28;101619;-74
2023/06/13 07:49:59;;;;;;;;;2.00;2.00;;;;;16.66;59.86;98383.75;4860621;28;103385;-74
2023/06/13 07:52:26;;;;;;;;;3.00;3.00;;;;;16.45;61.15;98365.31;4866666;28;101676;-73
2023/06/13 07:54:53;;;;;;;;;3.00;3.00;;;;;16.45;61.58;98335.28;4858349;28;101711;-74
2023/06/13 07:57:21;;;;;;;;;5.00;3.00;;;;;16.89;60.58;98390.97;4862028;28;101325;-74
2023/06/13 07:59:51;;;;;;;;;3.00;2.67;;;;;16.93;62.16;98375.78;4868540;28;102923;-74
2023/06/13 08:02:18;;;;;;;;;2.00;1.00;;;;;17.53;60.67;98367.69;4859160;28;101497;-74
2023/06/13 08:04:46;;;;;;;;;2.00;2.00;;;;;17.72;57.73;98384.69;4893827;28;101565;-73
2023/06/13 08:07:19;;;;;;;;;2.00;2.00;;;;;17.70;56.28;98386.81;4868345;28;101412;-74
2023/06/13 08:09:48;;;;;;;;;2.00;2.00;;;;;17.07;58.05;98396.22;4857758;28;103375;-74
2023/06/13 08:12:15;;;;;;;;;2.00;2.00;;;;;16.70;59.34;98370.47;4875409;28;101594;-74
2023/06/13 08:14:42;;;;;;;;;3.00;2.67;;;;;16.56;56.04;98339.03;4861262;28;101416;-74
2023/06/13 08:17:09;;;;;;;;;3.00;3.00;;;;;17.24;55.57;98391.59;4862670;28;101564;-74
2023/06/13 08:19:38;;;;;;;;;4.00;4.00;;;;;17.42;55.66;98376.84;4861700;28;103714;-74
2023/06/13 08:22:05;;;;;;;;;2.33;2.00;;;;;17.39;55.53;98385.53;4810565;28;101682;-74
2023/06/13 08:24:32;;;;;;;;;3.00;3.00;;;;;17.09;56.98;98393.25;4846149;28;101758;-73
2023/06/13 08:27:00;;;;;;;;;2.00;2.00;;;;;16.92;58.40;98385.03;4850478;28;101717;-74
2023/06/13 08:29:28;;;;;;;;;2.00;2.00;;;;;15.81;59.24;98263.69;4853892;28;103125;-75
2023/06/13 08:31:56;;;;;;;;;1.00;1.00;;;;;16.57;56.40;98377.00;4885497;28;101566;-74
2023/06/13 08:34:23;;;;;;;;;3.33;3.00;;;;;16.75;57.93;98373.28;4856698;28;101360;-74
2023/06/13 08:36:50;;;;;;;;;3.33;2.33;;;;;17.28;58.52;98372.78;4850394;28;101753;-74
2023/06/13 08:39:17;;;;;;;;;3.00;3.00;;;;;17.30;58.69;98381.56;4854295;28;108151;-74
2023/06/13 08:41:45;;;;;;;;;2.00;2.00;;;;;17.69;58.69;98347.75;4851224;28;101882;-73
2023/06/13 08:44:12;;;;;;;;;4.00;4.00;;;;;17.27;53.39;98349.28;4871200;28;102547;-74
2023/06/13 08:46:39;;;;;;;;;3.00;2.67;;;;;17.50;58.00;98354.53;4856363;28;101736;-73
2023/06/13 08:49:06;;;;;;;;;4.67;4.00;;;;;17.50;55.37;98364.66;4850458;28;103521;-73
2023/06/13 08:51:34;;;;;;;;;4.00;4.00;;;;;17.43;57.50;98370.28;4851586;28;101916;-73
2023/06/13 08:54:03;;;;;;;;;3.00;3.00;;;;;17.20;56.78;98327.56;4883227;28;103200;-74
2023/06/13 08:56:40;;;;;;;;;4.00;3.67;;;;;17.53;54.70;98370.44;4855591;28;101685;-74
2023/06/13 08:59:26;;;;;;;;;4.67;3.00;;;;;17.93;55.68;98353.78;4848439;28;102464;-73
2023/06/13 09:01:55;;;;;;;;;2.00;2.00;;;;;18.45;54.64;98367.00;4838429;28;101697;-73
2023/06/13 09:04:27;;;;;;;;;2.00;2.00;;;;;18.85;52.90;98372.09;4847273;28;102255;-74
2023/06/13 09:06:58;;;;;;;;;2.00;2.00;;;;;18.37;55.36;98373.72;4856920;28;102741;-74
2023/06/13 09:09:26;;;;;;;;;4.67;4.67;;;;;18.44;53.80;98371.63;4837668;28;103448;-73
2023/06/13 09:11:55;;;;;;;;;2.67;2.00;;;;;18.24;55.39;98355.81;4847788;28;101862;-73
2023/06/13 09:14:22;;;;;;;;;3.00;3.00;;;;;17.93;54.61;98374.84;4853334;28;101926;-73
2023/06/13 09:16:53;;;;;;;;;3.33;3.33;;;;;18.37;56.24;98360.03;4854512;28;102693;-73
2023/06/13 09:19:21;;;;;;;;;2.67;2.00;;;;;18.80;56.53;98363.81;4872526;28;107719;-73
2023/06/13 09:21:48;;;;;;;;;2.00;2.00;;;;;19.13;52.34;98377.28;4861809;28;101842;-73
2023/06/13 09:24:17;;;;;;;;;3.00;3.00;;;;;18.17;53.74;98366.13;4852026;28;101814;-73
2023/06/13 09:26:45;;;;;;;;;3.67;3.67;;;;;17.77;53.13;98363.72;4851539;28;101627;-73
2023/06/13 09:29:12;;;;;;;;;4.67;4.67;;;;;17.27;52.71;98377.44;4848416;28;103536;-74
2023/06/13 09:31:58;;;;;;;;;5.00;5.00;;;;;17.01;56.15;98372.63;4843882;28;101609;-73
2023/06/13 09:34:28;;;;;;;;;4.33;4.00;;;;;17.41;55.06;98350.56;4877081;28;101848;-73
2023/06/13 09:36:57;;;;;;;;;4.00;3.00;;;;;17.94;55.74;98363.66;4869256;28;102706;-73
2023/06/13 09:39:26;;;;;;;;;4.00;4.00;;;;;17.82;54.96;98362.94;4854268;28;102289;-73
2023/06/13 09:41:55;;;;;;;;;2.00;2.00;;;;;18.07;54.97;98352.31;4853525;28;101684;-73
2023/06/13 09:44:24;;;;;;;;;4.00;3.00;;;;;18.06;54.79;98363.50;4856111;28;101448;-73
2023/06/13 09:46:54;;;;;;;;;4.67;4.67;;;;;17.73;54.67;98339.84;4841209;28;101750;-74
2023/06/13 09:49:21;;;;;;;;;3.67;3.67;;;;;17.94;54.73;98360.06;4850251;28;103678;-73
2023/06/13 09:51:51;;;;;;;;;1.67;1.67;;;;;18.02;54.90;98338.56;4864877;28;101274;-74
2023/06/13 09:54:18;;;;;;;;;2.67;2.67;;;;;18.12;54.74;98337.88;4847644;28;101539;-74
2023/06/13 09:56:45;;;;;;;;;3.00;2.00;;;;;18.37;53.95;98321.72;4877492;28;101621;-73
2023/06/13 09:59:17;;;;;;;;;5.00;5.00;;;;;17.64;53.16;98328.53;4868993;28;103646;-72
2023/06/13 10:01:47;;;;;;;;;4.67;3.67;;;;;17.79;53.63;98328.72;4812260;28;1341663;-73
2023/06/13 10:04:15;;;;;;;;;3.33;3.33;;;;;17.95;53.43;98328.91;4849256;28;101444;-73
2023/06/13 10:06:42;;;;;;;;;6.00;5.00;;;;;17.63;55.50;98324.13;4853431;28;102066;-73
2023/06/13 10:09:12;;;;;;;;;4.00;4.00;;;;;17.87;53.43;98312.94;4879774;28;103371;-73
2023/06/13 10:11:43;;;;;;;;;4.33;3.33;;;;;18.02;53.50;98329.53;4852045;28;101390;-73
2023/06/13 10:14:16;;;;;;;;;6.00;5.00;;;;;17.80;52.39;98335.00;4847365;28;101850;-74
2023/06/13 10:16:49;;;;;;;;;5.00;5.00;;;;;17.59;54.92;98317.53;4852360;28;102084;-73
2023/06/13 10:19:38;;;;;;;;;4.00;4.00;;;;;17.13;54.83;98315.16;4856480;28;108241;-74
2023/06/13 10:22:07;;;;;;;;;4.00;4.00;;;;;17.32;56.68;98303.72;4851759;28;102375;-74
2023/06/13 10:24:36;;;;;;;;;2.00;2.00;;;;;18.16;56.53;98319.84;4846351;28;101407;-73
2023/06/13 10:27:06;;;;;;;;;9.00;8.00;;;;;17.93;52.00;98288.13;4853062;28;101587;-72
2023/06/13 10:30:06;;;;;;;;;8.00;7.00;;;;;18.13;55.18;98296.56;4848797;28;103382;-74
2023/06/13 10:33:04;;;;;;;;;5.00;5.00;;;;;18.50;52.19;98315.84;4849211;28;101921;-73
2023/06/13 10:35:55;;;;;;;;;5.33;5.00;;;;;18.20;53.31;98318.25;4853232;28;102214;-73
2023/06/13 10:38:57;;;;;;;;;3.00;3.00;;;;;18.68;54.69;98317.41;4847920;28;101884;-71
2023/06/13 10:41:33;;;;;;;;;3.33;3.00;;;;;19.23;54.99;98313.47;4851929;28;108371;-74
2023/06/13 10:44:07;;;;;;;;;4.00;4.00;;;;;19.07;52.66;98316.09;4855928;28;101717;-74
2023/06/13 10:46:35;;;;;;;;;4.00;4.00;;;;;19.55;50.33;98306.00;4855728;28;101395;-73
2023/06/13 10:49:02;;;;;;;;;4.67;4.67;;;;;19.80;48.40;98308.91;4858969;28;101560;-73
2023/06/13 10:51:31;;;;;;;;;5.00;3.00;;;;;19.87;45.99;98301.25;4850382;28;103631;-74
2023/06/13 10:54:12;;;;;;;;;7.00;5.67;;;;;19.57;52.32;98299.19;4851751;28;102679;-73
2023/06/13 10:56:44;;;;;;;;;6.67;6.00;;;;;19.26;49.76;98242.50;4852422;28;101900;-73
2023/06/13 10:59:16;;;;;;;;;5.67;4.67;;;;;19.33;49.90;98294.34;4851105;28;101584;-73
2023/06/13 11:01:44;;;;;;;;;6.33;6.33;;;;;18.69;50.63;98311.66;4852017;28;103385;-73
2023/06/13 11:04:13;;;;;;;;;4.00;4.00;;;;;18.85;50.84;98284.41;4850934;28;101905;-74
2023/06/13 11:06:46;;;;;;;;;4.00;4.00;;;;;18.81;50.08;98305.19;4852675;28;101919;-77
2023/06/13 11:09:24;;;;;;;;;5.00;5.00;;;;;18.45;51.29;98309.50;4846675;28;101569;-73
2023/06/13 11:11:53;;;;;;;;;8.00;6.33;;;;;18.10;51.17;98313.50;4850829;28;107785;-75
2023/06/13 11:14:41;;;;;;;;;5.67;4.00;;;;;18.05;51.79;98318.09;4851412;28;101773;-74
2023/06/13 11:17:08;;;;;;;;;6.00;5.00;;;;;17.95;54.60;98312.50;4850181;28;101975;-73
2023/06/13 11:19:39;;;;;;;;;5.00;5.00;;;;;17.87;53.80;98310.22;4857787;28;101781;-74
2023/06/13 11:22:13;;;;;;;;;4.00;4.00;;;;;17.71;53.86;98312.75;4851757;28;103373;-74
2023/06/13 11:24:40;;;;;;;;;6.67;5.00;;;;;17.79;55.15;98309.56;4852287;28;102026;-74
2023/06/13 11:27:09;;;;;;;;;3.33;3.00;;;;;17.69;56.00;98304.00;4852417;28;101721;-74
2023/06/13 11:29:37;;;;;;;;;5.00;4.33;;;;;17.71;54.13;98285.41;4851525;28;102263;-74
2023/06/13 11:32:08;;;;;;;;;2.00;2.00;;;;;18.27;55.42;98297.81;4887231;28;103454;-74
2023/06/13 11:34:46;;;;;;;;;2.33;2.33;;;;;18.66;54.81;98309.47;4882343;28;101986;-74
2023/06/13 11:37:43;;;;;;;;;3.00;3.00;;;;;18.91;50.95;98303.34;4853832;28;101880;-73
2023/06/13 11:40:20;;;;;;;;;6.00;5.00;;;;;18.80;52.34;98298.06;4884765;28;101920;-73